ADDS METAR Data INFO
IDs: Format: Raw Decoded Include TAF

Data at: 0256 UTC 21 Jan 2018

K54J 210235Z AUTO 00000KT 10SM SCT120 11/05 A3028 RMK AO2 T01130052
K54J 210215Z AUTO 00000KT 10SM SCT120 11/05 A3028 RMK AO2 T01110053
K54J 210155Z AUTO 00000KT 10SM CLR 12/05 A3028 RMK AO2 T01150053
K54J 210135Z AUTO 00000KT 10SM CLR 11/05 A3028 RMK AO2 T01130053
K54J 210115Z AUTO 00000KT 10SM SCT120 13/05 A3027 RMK AO2 T01250047
K54J 210055Z AUTO 00000KT 10SM SCT120 13/05 A3027 RMK AO2 T01270049
K54J 210035Z AUTO 24003KT 10SM CLR 13/05 A3027 RMK AO2 T01290051
K54J 210015Z AUTO 24003KT 10SM CLR 14/05 A3026 RMK AO2 T01370052
K54J 202355Z AUTO 00000KT 10SM CLR 14/05 A3026 RMK AO2 T01420050 10184 20138
K54J 202335Z AUTO 00000KT 10SM CLR 14/05 A3026 RMK AO2 T01440050
K54J 202315Z AUTO 11003KT 10SM CLR 15/05 A3025 RMK AO2 T01500051
K54J 202255Z AUTO 00000KT 10SM CLR 16/05 A3025 RMK AO2 T01580047
K54J 202235Z AUTO 09003KT 10SM CLR 16/05 A3025 RMK AO2 T01630046
K54J 202215Z AUTO 11005KT 10SM CLR 17/05 A3025 RMK AO2 T01680045
K54J 202155Z AUTO 08005KT 10SM CLR 17/05 A3025 RMK AO2 T01680046
K54J 202135Z AUTO 07005KT 10SM CLR 17/05 A3025 RMK AO2 T01710045
K54J 202115Z AUTO 03003KT 10SM CLR 17/04 A3024 RMK AO2 T01730043
K54J 202055Z AUTO 03003KT 10SM CLR 18/04 A3024 RMK AO2 T01800043
K54J 202035Z AUTO 00000KT 10SM CLR 17/04 A3025 RMK AO2 T01710040
K54J 202015Z AUTO 04003KT 10SM CLR 18/04 A3025 RMK AO2 T01790040
K54J 201955Z AUTO 04004KT 10SM CLR 17/04 A3025 RMK AO2 T01730038
K54J 201935Z AUTO 06008KT 10SM CLR 18/04 A3027 RMK AO2 T01750038
K54J 201915Z AUTO 05005KT 10SM CLR 17/04 A3027 RMK AO2 T01730036
K54J 201855Z AUTO 06007KT 10SM CLR 17/03 A3028 RMK AO2 T01710032
K54J 201835Z AUTO 03007KT 10SM CLR 16/03 A3028 RMK AO2 T01620032
K54J 201815Z AUTO 05006KT 10SM CLR 16/03 A3029 RMK AO2 T01610028
K54J 201755Z AUTO 07006KT 10SM CLR 16/02 A3030 RMK AO2 T01590024 10160 20035
K54J 201735Z AUTO 06006KT 10SM CLR 16/02 A3031 RMK AO2 T01570021
K54J 201715Z AUTO 08005KT 10SM CLR 15/01 A3032 RMK AO2 T01510011
K54J 201655Z AUTO 05008KT 10SM CLR 15/01 A3033 RMK AO2 T01490010
K54J 201635Z AUTO 09009KT 10SM CLR 14/00 A3034 RMK AO2 T01420000
K54J 201615Z AUTO 11006KT 10SM CLR 13/M04 A3035 RMK AO2 T01311036
K54J 201555Z AUTO 06003KT 10SM CLR 12/M07 A3035 RMK AO2 T01181071
K54J 201535Z AUTO 08005KT 10SM CLR 11/M08 A3035 RMK AO2 T01071077
K54J 201515Z AUTO 07006KT 10SM CLR 09/M08 A3034 RMK AO2 T00861076
K54J 201455Z AUTO 07006KT 10SM CLR 07/M07 A3034 RMK AO2 T00741075
K54J 201435Z AUTO 06005KT 10SM CLR 07/M08 A3034 RMK AO2 T00681082
K54J 201415Z AUTO 07006KT 10SM CLR 07/M08 A3033 RMK AO2 T00721082
K54J 201355Z AUTO 08004KT 10SM CLR 06/M08 A3033 RMK AO2 T00601083
K54J 201335Z AUTO 09003KT 10SM CLR 06/M07 A3032 RMK AO2 T00551066
K54J 201315Z AUTO 07003KT 10SM CLR 05/M07 A3031 RMK AO2 T00471069
K54J 201255Z AUTO 06004KT 10SM CLR 04/M07 A3031 RMK AO2 T00371067
K54J 201235Z AUTO 05003KT 10SM CLR 04/M07 A3030 RMK AO2 T00401069
K54J 201215Z AUTO 00000KT 10SM CLR 04/M07 A3030 RMK AO2 T00391069
K54J 201155Z AUTO 07003KT 10SM CLR 04/M07 A3029 RMK AO2 T00371067 10052 20009
K54J 201135Z AUTO 04004KT 10SM CLR 03/M05 A3029 RMK AO2 T00291051
K54J 201115Z AUTO 04003KT 10SM CLR 02/M04 A3028 RMK AO2 T00221043
K54J 201055Z AUTO 03003KT 10SM CLR 02/M04 A3028 RMK AO2 T00201041
K54J 201035Z AUTO 04004KT 10SM CLR 03/M04 A3028 RMK AO2 T00251041
K54J 201015Z AUTO 05004KT 10SM CLR 02/M02 A3028 RMK AO2 T00161024
K54J 200955Z AUTO 05003KT 10SM CLR 02/M04 A3027 RMK AO2 T00211036
K54J 200935Z AUTO 00000KT 10SM CLR 03/M04 A3027 RMK AO2 T00301036
K54J 200915Z AUTO 00000KT 10SM CLR 04/M04 A3028 RMK AO2 T00381040
K54J 200855Z AUTO 01004KT 10SM CLR 02/M01 A3028 RMK AO2 T00181014
K54J 200835Z AUTO 36004KT 10SM CLR 02/M02 A3028 RMK AO2 T00181016
K54J 200815Z AUTO 36003KT 10SM CLR 03/M02 A3028 RMK AO2 T00261023
K54J 200755Z AUTO 35003KT 10SM CLR 03/M03 A3028 RMK AO2 T00261027
K54J 200735Z AUTO 35003KT 10SM CLR 03/M03 A3028 RMK AO2 T00311027
K54J 200715Z AUTO 36003KT 10SM CLR 03/M02 A3028 RMK AO2 T00271022
K54J 200655Z AUTO 35003KT 10SM CLR 03/M03 A3028 RMK AO2 T00271028
K54J 200635Z AUTO 33004KT 10SM CLR 03/M02 A3028 RMK AO2 T00261019
K54J 200615Z AUTO 33003KT 10SM CLR 03/M03 A3028 RMK AO2 T00321029
K54J 200555Z AUTO 00000KT 10SM CLR 04/M03 A3028 RMK AO2 T00391030 10086 20026
K54J 200535Z AUTO 33003KT 10SM CLR 04/M03 A3028 RMK AO2 T00351035
K54J 200455Z AUTO 33004KT 10SM CLR 03/M02 A3029 RMK AO2 T00321018 401401047
K54J 200435Z AUTO 32003KT 10SM CLR 03/M04 A3030 RMK AO2 T00311036
K54J 200415Z AUTO 00000KT 10SM CLR 03/M02 A3030 RMK AO2 T00341022
K54J 200355Z AUTO 00000KT 10SM CLR 05/M04 A3030 RMK AO2 T00541040
K54J 200335Z AUTO 00000KT 10SM CLR 04/M03 A3030 RMK AO2 T00421034
K54J 200315Z AUTO 00000KT 10SM CLR 06/M03 A3029 RMK AO2 T00561033
K54J 200235Z AUTO 29003KT 10SM CLR 06/M03 A3029 RMK AO2 T00571030
K54J 200215Z AUTO 26004KT 10SM CLR 07/M03 A3029 RMK AO2 T00651030
K54J 200155Z AUTO 26004KT 10SM CLR 06/M04 A3030 RMK AO2 T00571039
K54J 200135Z AUTO 00000KT 10SM CLR 06/M04 A3030 RMK AO2 T00611038
K54J 200115Z AUTO 00000KT 10SM CLR 07/M05 A3029 RMK AO2 T00661048
K54J 200055Z AUTO 00000KT 10SM CLR 07/M05 A3028 RMK AO2 T00651049
K54J 200035Z AUTO 00000KT 10SM CLR 08/M05 A3028 RMK AO2 T00761050
K54J 200015Z AUTO 00000KT 10SM CLR 08/M05 A3029 RMK AO2 T00811054
K54J 192355Z AUTO 22004KT 10SM CLR 08/M07 A3028 RMK AO2 T00841075 10140 20073
K54J 192335Z AUTO 34003KT 10SM CLR 09/M07 A3028 RMK AO2 T00921070
K54J 192315Z AUTO 35003KT 10SM CLR 10/M08 A3027 RMK AO2 T01041078
K54J 192255Z AUTO 35003KT 10SM CLR 12/M11 A3027 RMK AO2 T01221113
K54J 192235Z AUTO 36003KT 10SM CLR 13/M11 A3027 RMK AO2 T01281114
K54J 192215Z AUTO 36003KT 10SM CLR 13/M12 A3027 RMK AO2 T01321121
K54J 192155Z AUTO 35004KT 10SM CLR 14/M12 A3028 RMK AO2 T01361125
K54J 192135Z AUTO 35003KT 10SM CLR 14/M13 A3027 RMK AO2 T01381135
K54J 192115Z AUTO 00000KT 10SM CLR 14/M14 A3027 RMK AO2 T01351144
K54J 192055Z AUTO 00000KT 10SM CLR 14/M13 A3027 RMK AO2 T01351135
K54J 192035Z AUTO 36006KT 10SM CLR 13/M14 A3028 RMK AO2 T01331141
K54J 192015Z AUTO 33004KT 10SM CLR 13/M13 A3028 RMK AO2 T01341134
K54J 191955Z AUTO 04004KT 10SM CLR 13/M13 A3028 RMK AO2 T01301132
K54J 191935Z AUTO 00000KT 10SM CLR 13/M13 A3029 RMK AO2 T01271128
K54J 191915Z AUTO 36005KT 10SM CLR 12/M14 A3030 RMK AO2 T01241137
K54J 191855Z AUTO 30006KT 10SM CLR 12/M13 A3031 RMK AO2 T01241126
K54J 191835Z AUTO 30003KT 10SM CLR 12/M13 A3032 RMK AO2 T01151135
K54J 191815Z AUTO 00000KT 10SM CLR 11/M11 A3033 RMK AO2 T01101114
K54J 191755Z AUTO 00000KT 10SM CLR 10/M12 A3035 RMK AO2 T01041124 10107 21038
K54J 191735Z AUTO 00000KT 10SM CLR 11/M11 A3036 RMK AO2 T01051108
K54J 191715Z AUTO 01003KT 10SM CLR 09/M10 A3038 RMK AO2 T00911104
K54J 191655Z AUTO 01004KT 10SM CLR 09/M09 A3038 RMK AO2 T00891095
K54J 191635Z AUTO 35004KT 10SM CLR 08/M11 A3039 RMK AO2 T00781109
K54J 191615Z AUTO 00000KT 10SM CLR 07/M08 A3040 RMK AO2 T00731085
K54J 191555Z AUTO 08003KT 10SM CLR 06/M09 A3041 RMK AO2 T00611093
K54J 191535Z AUTO 00000KT 10SM CLR 05/M09 A3041 RMK AO2 T00541088
K54J 191515Z AUTO 00000KT 10SM CLR 04/M09 A3041 RMK AO2 T00441094